aviador You're here:

UBBB Decoded Metar

BAKU in AZERBAIJAN
Report Time2018-02-20 13:30:00
UTC Time2018-02-20 13:55:00
Flight Rules vfr VFR
Wind160° at 07 kt
W.Decomp.*RWY 16: 7.0 kt HW 0.5 kt LCW
RWY 18: 6.4 kt HW 2.8 kt LCW
W.Rank160° ranks 7
Current wind is below 160° avg. (8.4)
Visibility9999 m
Phenomena:N/A
Clouds:Overcast 032 Hf
Expected CloudBase > 1,200 ft AGL from Temp-Dew spread
Ceiling3,200 ft
Temp07°C (ISA -8)
Dew Point04°C (81% RH)
AAT3.2°C
QNH1019 hPa
Density Alt-1,083 ft
Elevation-20 ft
Report Wrong Elevation
Raw Report
METAR UBBB 201330Z 16007KT 9999 OVC032 07/04 Q1019 R88/D NOSIG=

Extra information for UBBB:More info

Metar Taf Metar & Taf Last 4 Metars F.Rules Stats Wind Profile Meteogram Temp Stats Airport Information Weather charts Add Link Nearby VenuesMetar ALERT Operation Metar Decoded Social comments